sensor_id;sensor_type;location;lat;lon;timestamp;P1;durP1;ratioP1;P2;durP2;ratioP2
11699;SDS011;5906;51.660;6.674;2023-12-20T00:01:07;17.17;;;7.80;;
11699;SDS011;5906;51.660;6.674;2023-12-20T00:03:34;14.93;;;7.90;;
11699;SDS011;5906;51.660;6.674;2023-12-20T00:06:08;12.23;;;7.13;;
11699;SDS011;5906;51.660;6.674;2023-12-20T00:08:37;12.60;;;7.30;;
11699;SDS011;5906;51.660;6.674;2023-12-20T00:11:04;14.10;;;7.20;;
11699;SDS011;5906;51.660;6.674;2023-12-20T00:13:31;21.93;;;7.80;;
11699;SDS011;5906;51.660;6.674;2023-12-20T00:15:59;9.50;;;6.60;;
11699;SDS011;5906;51.660;6.674;2023-12-20T00:18:26;12.73;;;7.73;;
11699;SDS011;5906;51.660;6.674;2023-12-20T00:20:54;12.00;;;7.23;;
11699;SDS011;5906;51.660;6.674;2023-12-20T00:23:21;17.33;;;8.77;;
11699;SDS011;5906;51.660;6.674;2023-12-20T00:25:49;11.60;;;7.50;;
11699;SDS011;5906;51.660;6.674;2023-12-20T00:28:16;10.43;;;8.07;;
11699;SDS011;5906;51.660;6.674;2023-12-20T00:30:44;14.80;;;8.60;;
11699;SDS011;5906;51.660;6.674;2023-12-20T00:33:11;18.00;;;8.80;;
11699;SDS011;5906;51.660;6.674;2023-12-20T00:35:39;18.70;;;8.77;;
11699;SDS011;5906;51.660;6.674;2023-12-20T00:38:06;14.43;;;8.90;;
11699;SDS011;5906;51.660;6.674;2023-12-20T00:40:34;18.07;;;8.67;;
11699;SDS011;5906;51.660;6.674;2023-12-20T00:43:02;12.60;;;7.50;;
11699;SDS011;5906;51.660;6.674;2023-12-20T00:45:30;14.63;;;8.27;;
11699;SDS011;5906;51.660;6.674;2023-12-20T00:47:57;11.60;;;7.03;;
11699;SDS011;5906;51.660;6.674;2023-12-20T00:50:25;14.67;;;7.80;;
11699;SDS011;5906;51.660;6.674;2023-12-20T00:52:55;14.60;;;7.33;;
11699;SDS011;5906;51.660;6.674;2023-12-20T00:55:23;12.03;;;7.00;;
11699;SDS011;5906;51.660;6.674;2023-12-20T00:57:51;10.90;;;7.23;;
11699;SDS011;5906;51.660;6.674;2023-12-20T01:00:20;12.90;;;6.77;;
11699;SDS011;5906;51.660;6.674;2023-12-20T01:02:47;11.33;;;7.30;;
11699;SDS011;5906;51.660;6.674;2023-12-20T01:05:16;18.30;;;7.80;;
11699;SDS011;5906;51.660;6.674;2023-12-20T01:07:44;24.93;;;8.93;;
11699;SDS011;5906;51.660;6.674;2023-12-20T01:10:11;23.33;;;6.80;;
11699;SDS011;5906;51.660;6.674;2023-12-20T01:12:39;16.50;;;7.70;;
11699;SDS011;5906;51.660;6.674;2023-12-20T01:15:06;15.23;;;8.70;;
11699;SDS011;5906;51.660;6.674;2023-12-20T01:17:34;8.70;;;6.97;;
11699;SDS011;5906;51.660;6.674;2023-12-20T01:20:01;10.73;;;6.87;;
11699;SDS011;5906;51.660;6.674;2023-12-20T01:22:28;10.07;;;6.50;;
11699;SDS011;5906;51.660;6.674;2023-12-20T01:24:56;12.73;;;7.13;;
11699;SDS011;5906;51.660;6.674;2023-12-20T01:27:23;15.43;;;7.40;;
11699;SDS011;5906;51.660;6.674;2023-12-20T01:29:50;24.13;;;7.77;;
11699;SDS011;5906;51.660;6.674;2023-12-20T01:32:18;16.07;;;7.37;;
11699;SDS011;5906;51.660;6.674;2023-12-20T01:34:45;13.20;;;6.00;;
11699;SDS011;5906;51.660;6.674;2023-12-20T01:37:14;19.23;;;6.70;;
11699;SDS011;5906;51.660;6.674;2023-12-20T01:39:42;15.03;;;6.30;;
11699;SDS011;5906;51.660;6.674;2023-12-20T01:42:09;12.80;;;6.20;;
11699;SDS011;5906;51.660;6.674;2023-12-20T01:44:36;12.33;;;6.73;;
11699;SDS011;5906;51.660;6.674;2023-12-20T01:47:04;16.00;;;6.50;;
11699;SDS011;5906;51.660;6.674;2023-12-20T01:49:31;11.30;;;5.83;;
11699;SDS011;5906;51.660;6.674;2023-12-20T01:51:58;13.87;;;5.20;;
11699;SDS011;5906;51.660;6.674;2023-12-20T01:54:26;11.33;;;6.10;;
11699;SDS011;5906;51.660;6.674;2023-12-20T01:56:53;16.87;;;6.37;;
11699;SDS011;5906;51.660;6.674;2023-12-20T01:59:20;11.53;;;6.03;;
11699;SDS011;5906;51.660;6.674;2023-12-20T02:01:48;26.13;;;6.67;;
11699;SDS011;5906;51.660;6.674;2023-12-20T02:04:16;16.47;;;6.17;;
11699;SDS011;5906;51.660;6.674;2023-12-20T02:06:43;13.43;;;5.80;;
11699;SDS011;5906;51.660;6.674;2023-12-20T02:09:14;28.57;;;6.90;;
11699;SDS011;5906;51.660;6.674;2023-12-20T02:11:42;15.17;;;6.90;;
11699;SDS011;5906;51.660;6.674;2023-12-20T02:14:10;19.87;;;6.30;;
11699;SDS011;5906;51.660;6.674;2023-12-20T02:16:37;11.83;;;5.90;;
11699;SDS011;5906;51.660;6.674;2023-12-20T02:19:05;17.90;;;5.70;;
11699;SDS011;5906;51.660;6.674;2023-12-20T02:21:36;18.60;;;6.40;;
11699;SDS011;5906;51.660;6.674;2023-12-20T02:24:03;8.57;;;5.27;;
11699;SDS011;5906;51.660;6.674;2023-12-20T02:26:31;14.20;;;5.83;;
11699;SDS011;5906;51.660;6.674;2023-12-20T02:28:59;14.30;;;6.47;;
11699;SDS011;5906;51.660;6.674;2023-12-20T02:31:27;18.90;;;6.83;;
11699;SDS011;5906;51.660;6.674;2023-12-20T02:33:54;14.13;;;7.60;;
11699;SDS011;5906;51.660;6.674;2023-12-20T02:36:21;9.33;;;6.70;;
11699;SDS011;5906;51.660;6.674;2023-12-20T02:38:48;19.23;;;7.27;;
11699;SDS011;5906;51.660;6.674;2023-12-20T02:41:17;19.50;;;8.13;;
11699;SDS011;5906;51.660;6.674;2023-12-20T02:43:44;19.73;;;7.97;;
11699;SDS011;5906;51.660;6.674;2023-12-20T02:46:13;17.03;;;9.17;;
11699;SDS011;5906;51.660;6.674;2023-12-20T02:48:40;13.60;;;7.20;;
11699;SDS011;5906;51.660;6.674;2023-12-20T02:51:08;15.97;;;7.40;;
11699;SDS011;5906;51.660;6.674;2023-12-20T02:53:35;22.70;;;8.03;;
11699;SDS011;5906;51.660;6.674;2023-12-20T02:56:03;12.63;;;7.87;;
11699;SDS011;5906;51.660;6.674;2023-12-20T02:58:30;21.40;;;7.83;;
11699;SDS011;5906;51.660;6.674;2023-12-20T03:00:57;10.47;;;7.67;;
11699;SDS011;5906;51.660;6.674;2023-12-20T03:03:25;16.80;;;7.87;;
11699;SDS011;5906;51.660;6.674;2023-12-20T03:05:52;11.70;;;7.27;;
11699;SDS011;5906;51.660;6.674;2023-12-20T03:08:19;20.30;;;7.33;;
11699;SDS011;5906;51.660;6.674;2023-12-20T03:10:47;17.50;;;7.07;;
11699;SDS011;5906;51.660;6.674;2023-12-20T03:13:15;21.10;;;6.37;;
11699;SDS011;5906;51.660;6.674;2023-12-20T03:15:42;18.57;;;5.77;;
11699;SDS011;5906;51.660;6.674;2023-12-20T03:18:09;21.33;;;6.33;;
11699;SDS011;5906;51.660;6.674;2023-12-20T03:20:37;10.97;;;6.60;;
11699;SDS011;5906;51.660;6.674;2023-12-20T03:23:04;18.53;;;6.23;;
11699;SDS011;5906;51.660;6.674;2023-12-20T03:25:31;18.70;;;6.57;;
11699;SDS011;5906;51.660;6.674;2023-12-20T03:27:59;22.77;;;5.73;;
11699;SDS011;5906;51.660;6.674;2023-12-20T03:30:26;10.77;;;5.40;;
11699;SDS011;5906;51.660;6.674;2023-12-20T03:32:53;18.43;;;7.20;;
11699;SDS011;5906;51.660;6.674;2023-12-20T03:35:20;15.40;;;5.90;;
11699;SDS011;5906;51.660;6.674;2023-12-20T03:37:49;21.53;;;5.37;;
11699;SDS011;5906;51.660;6.674;2023-12-20T03:40:16;15.57;;;5.23;;
11699;SDS011;5906;51.660;6.674;2023-12-20T03:42:43;11.13;;;6.10;;
11699;SDS011;5906;51.660;6.674;2023-12-20T03:45:10;20.57;;;6.30;;
11699;SDS011;5906;51.660;6.674;2023-12-20T03:47:38;14.00;;;6.17;;
11699;SDS011;5906;51.660;6.674;2023-12-20T03:50:05;13.33;;;5.60;;
11699;SDS011;5906;51.660;6.674;2023-12-20T03:52:33;11.43;;;4.60;;
11699;SDS011;5906;51.660;6.674;2023-12-20T03:55:00;14.03;;;5.50;;
11699;SDS011;5906;51.660;6.674;2023-12-20T03:57:27;12.47;;;5.30;;
11699;SDS011;5906;51.660;6.674;2023-12-20T03:59:54;12.30;;;4.97;;
11699;SDS011;5906;51.660;6.674;2023-12-20T04:02:22;19.70;;;5.97;;
11699;SDS011;5906;51.660;6.674;2023-12-20T04:04:49;17.43;;;4.67;;
11699;SDS011;5906;51.660;6.674;2023-12-20T04:07:16;11.83;;;4.70;;
11699;SDS011;5906;51.660;6.674;2023-12-20T04:09:44;11.33;;;4.67;;
11699;SDS011;5906;51.660;6.674;2023-12-20T04:12:11;8.37;;;5.07;;
11699;SDS011;5906;51.660;6.674;2023-12-20T04:14:39;10.40;;;4.97;;
11699;SDS011;5906;51.660;6.674;2023-12-20T04:17:06;15.73;;;5.43;;
11699;SDS011;5906;51.660;6.674;2023-12-20T04:19:34;12.13;;;4.30;;
11699;SDS011;5906;51.660;6.674;2023-12-20T04:22:01;27.80;;;5.70;;
11699;SDS011;5906;51.660;6.674;2023-12-20T04:24:28;23.17;;;8.70;;
11699;SDS011;5906;51.660;6.674;2023-12-20T04:26:56;13.43;;;5.13;;
11699;SDS011;5906;51.660;6.674;2023-12-20T04:29:23;11.50;;;4.93;;
11699;SDS011;5906;51.660;6.674;2023-12-20T04:31:50;14.00;;;5.53;;
11699;SDS011;5906;51.660;6.674;2023-12-20T04:34:18;12.30;;;4.90;;
11699;SDS011;5906;51.660;6.674;2023-12-20T04:36:45;14.07;;;6.17;;
11699;SDS011;5906;51.660;6.674;2023-12-20T04:39:13;11.47;;;4.70;;
11699;SDS011;5906;51.660;6.674;2023-12-20T04:41:41;17.17;;;4.60;;
11699;SDS011;5906;51.660;6.674;2023-12-20T04:44:09;13.67;;;5.10;;
11699;SDS011;5906;51.660;6.674;2023-12-20T04:46:36;19.33;;;5.80;;
11699;SDS011;5906;51.660;6.674;2023-12-20T04:49:03;27.47;;;5.00;;
11699;SDS011;5906;51.660;6.674;2023-12-20T04:51:33;16.73;;;5.43;;
11699;SDS011;5906;51.660;6.674;2023-12-20T04:54:01;20.80;;;5.10;;
11699;SDS011;5906;51.660;6.674;2023-12-20T04:56:28;19.43;;;5.00;;
11699;SDS011;5906;51.660;6.674;2023-12-20T04:58:55;20.67;;;5.50;;
11699;SDS011;5906;51.660;6.674;2023-12-20T05:01:23;10.00;;;5.20;;
11699;SDS011;5906;51.660;6.674;2023-12-20T05:03:51;16.73;;;6.40;;
11699;SDS011;5906;51.660;6.674;2023-12-20T05:06:18;9.23;;;4.80;;
11699;SDS011;5906;51.660;6.674;2023-12-20T05:08:45;21.30;;;5.27;;
11699;SDS011;5906;51.660;6.674;2023-12-20T05:11:12;14.67;;;5.77;;
11699;SDS011;5906;51.660;6.674;2023-12-20T05:13:41;20.30;;;4.97;;
11699;SDS011;5906;51.660;6.674;2023-12-20T05:16:15;11.50;;;4.60;;
11699;SDS011;5906;51.660;6.674;2023-12-20T05:18:45;8.80;;;4.33;;
11699;SDS011;5906;51.660;6.674;2023-12-20T05:21:12;10.23;;;5.37;;
11699;SDS011;5906;51.660;6.674;2023-12-20T05:23:40;13.23;;;4.80;;
11699;SDS011;5906;51.660;6.674;2023-12-20T05:26:07;12.57;;;4.80;;
11699;SDS011;5906;51.660;6.674;2023-12-20T05:28:34;18.77;;;5.37;;
11699;SDS011;5906;51.660;6.674;2023-12-20T05:31:01;13.20;;;4.30;;
11699;SDS011;5906;51.660;6.674;2023-12-20T05:33:29;16.43;;;5.03;;
11699;SDS011;5906;51.660;6.674;2023-12-20T05:35:57;16.80;;;6.20;;
11699;SDS011;5906;51.660;6.674;2023-12-20T05:38:24;12.30;;;5.90;;
11699;SDS011;5906;51.660;6.674;2023-12-20T05:40:52;13.00;;;5.63;;
11699;SDS011;5906;51.660;6.674;2023-12-20T05:43:19;12.93;;;5.40;;
11699;SDS011;5906;51.660;6.674;2023-12-20T05:45:47;18.13;;;6.83;;
11699;SDS011;5906;51.660;6.674;2023-12-20T05:48:14;20.97;;;6.03;;
11699;SDS011;5906;51.660;6.674;2023-12-20T05:50:41;27.13;;;7.50;;
11699;SDS011;5906;51.660;6.674;2023-12-20T05:53:09;13.10;;;5.37;;
11699;SDS011;5906;51.660;6.674;2023-12-20T05:55:36;19.83;;;6.67;;
11699;SDS011;5906;51.660;6.674;2023-12-20T05:58:04;12.20;;;5.73;;
11699;SDS011;5906;51.660;6.674;2023-12-20T06:00:31;16.60;;;6.97;;
11699;SDS011;5906;51.660;6.674;2023-12-20T06:02:58;24.80;;;6.67;;
11699;SDS011;5906;51.660;6.674;2023-12-20T06:05:26;20.67;;;7.20;;
11699;SDS011;5906;51.660;6.674;2023-12-20T06:07:53;21.27;;;6.90;;
11699;SDS011;5906;51.660;6.674;2023-12-20T06:10:23;17.43;;;7.23;;
11699;SDS011;5906;51.660;6.674;2023-12-20T06:12:50;15.53;;;6.47;;
11699;SDS011;5906;51.660;6.674;2023-12-20T06:15:18;16.77;;;7.77;;
11699;SDS011;5906;51.660;6.674;2023-12-20T06:17:45;23.73;;;7.40;;
11699;SDS011;5906;51.660;6.674;2023-12-20T06:20:14;16.00;;;7.03;;
11699;SDS011;5906;51.660;6.674;2023-12-20T06:22:41;20.50;;;5.47;;
11699;SDS011;5906;51.660;6.674;2023-12-20T06:25:08;20.80;;;6.93;;
11699;SDS011;5906;51.660;6.674;2023-12-20T06:27:36;16.00;;;6.63;;
11699;SDS011;5906;51.660;6.674;2023-12-20T06:30:03;13.10;;;7.03;;
11699;SDS011;5906;51.660;6.674;2023-12-20T06:32:31;25.33;;;7.73;;
11699;SDS011;5906;51.660;6.674;2023-12-20T06:34:59;15.33;;;6.27;;
11699;SDS011;5906;51.660;6.674;2023-12-20T06:37:26;33.83;;;6.73;;
11699;SDS011;5906;51.660;6.674;2023-12-20T06:39:53;24.23;;;7.00;;
11699;SDS011;5906;51.660;6.674;2023-12-20T06:42:21;17.97;;;7.07;;
11699;SDS011;5906;51.660;6.674;2023-12-20T06:44:48;13.10;;;5.57;;
11699;SDS011;5906;51.660;6.674;2023-12-20T06:47:16;20.50;;;6.30;;
11699;SDS011;5906;51.660;6.674;2023-12-20T06:49:43;18.20;;;6.20;;
11699;SDS011;5906;51.660;6.674;2023-12-20T06:52:10;24.30;;;6.73;;
11699;SDS011;5906;51.660;6.674;2023-12-20T06:54:38;22.10;;;6.67;;
11699;SDS011;5906;51.660;6.674;2023-12-20T06:57:05;18.80;;;6.83;;
11699;SDS011;5906;51.660;6.674;2023-12-20T06:59:33;16.50;;;7.30;;
11699;SDS011;5906;51.660;6.674;2023-12-20T07:02:05;21.00;;;6.90;;
11699;SDS011;5906;51.660;6.674;2023-12-20T07:04:40;30.37;;;7.67;;
11699;SDS011;5906;51.660;6.674;2023-12-20T07:07:08;19.63;;;6.80;;
11699;SDS011;5906;51.660;6.674;2023-12-20T07:09:35;17.37;;;6.33;;
11699;SDS011;5906;51.660;6.674;2023-12-20T07:12:03;13.63;;;6.97;;
11699;SDS011;5906;51.660;6.674;2023-12-20T07:14:31;22.27;;;6.17;;
11699;SDS011;5906;51.660;6.674;2023-12-20T07:16:58;14.60;;;6.50;;
11699;SDS011;5906;51.660;6.674;2023-12-20T07:19:25;12.50;;;5.70;;
11699;SDS011;5906;51.660;6.674;2023-12-20T07:21:52;31.83;;;6.90;;
11699;SDS011;5906;51.660;6.674;2023-12-20T07:24:20;23.07;;;6.53;;
11699;SDS011;5906;51.660;6.674;2023-12-20T07:26:48;18.60;;;5.63;;
11699;SDS011;5906;51.660;6.674;2023-12-20T07:29:15;16.07;;;6.70;;
11699;SDS011;5906;51.660;6.674;2023-12-20T07:31:43;13.27;;;6.30;;
11699;SDS011;5906;51.660;6.674;2023-12-20T07:34:10;27.00;;;7.20;;
11699;SDS011;5906;51.660;6.674;2023-12-20T07:36:37;22.50;;;6.30;;
11699;SDS011;5906;51.660;6.674;2023-12-20T07:39:05;23.60;;;5.53;;
11699;SDS011;5906;51.660;6.674;2023-12-20T07:41:32;20.17;;;5.80;;
11699;SDS011;5906;51.660;6.674;2023-12-20T07:43:59;27.70;;;7.60;;
11699;SDS011;5906;51.660;6.674;2023-12-20T07:46:26;12.53;;;5.83;;
11699;SDS011;5906;51.660;6.674;2023-12-20T07:48:54;31.13;;;7.97;;
11699;SDS011;5906;51.660;6.674;2023-12-20T07:51:21;18.33;;;5.80;;
11699;SDS011;5906;51.660;6.674;2023-12-20T07:53:49;31.33;;;6.37;;
11699;SDS011;5906;51.660;6.674;2023-12-20T07:56:17;23.93;;;7.47;;
11699;SDS011;5906;51.660;6.674;2023-12-20T07:58:45;15.10;;;7.60;;
11699;SDS011;5906;51.660;6.674;2023-12-20T08:01:19;26.97;;;7.30;;
11699;SDS011;5906;51.660;6.674;2023-12-20T08:03:48;19.73;;;6.60;;
11699;SDS011;5906;51.660;6.674;2023-12-20T08:06:16;20.70;;;7.10;;
11699;SDS011;5906;51.660;6.674;2023-12-20T08:08:44;23.00;;;6.70;;
11699;SDS011;5906;51.660;6.674;2023-12-20T08:11:18;13.67;;;6.90;;
11699;SDS011;5906;51.660;6.674;2023-12-20T08:13:45;22.57;;;7.50;;
11699;SDS011;5906;51.660;6.674;2023-12-20T08:16:13;22.30;;;6.97;;
11699;SDS011;5906;51.660;6.674;2023-12-20T08:18:42;24.27;;;6.27;;
11699;SDS011;5906;51.660;6.674;2023-12-20T08:21:09;16.03;;;8.20;;
11699;SDS011;5906;51.660;6.674;2023-12-20T08:23:37;25.10;;;6.90;;
11699;SDS011;5906;51.660;6.674;2023-12-20T08:26:05;27.87;;;6.93;;
11699;SDS011;5906;51.660;6.674;2023-12-20T08:28:33;22.33;;;7.03;;
11699;SDS011;5906;51.660;6.674;2023-12-20T08:31:00;22.40;;;6.87;;
11699;SDS011;5906;51.660;6.674;2023-12-20T08:33:28;18.37;;;6.07;;
11699;SDS011;5906;51.660;6.674;2023-12-20T08:35:55;17.57;;;7.00;;
11699;SDS011;5906;51.660;6.674;2023-12-20T08:38:23;20.17;;;6.50;;
11699;SDS011;5906;51.660;6.674;2023-12-20T08:40:50;13.37;;;6.50;;
11699;SDS011;5906;51.660;6.674;2023-12-20T08:43:17;33.33;;;7.77;;
11699;SDS011;5906;51.660;6.674;2023-12-20T08:45:45;18.83;;;6.23;;
11699;SDS011;5906;51.660;6.674;2023-12-20T08:48:12;18.80;;;5.80;;
11699;SDS011;5906;51.660;6.674;2023-12-20T08:50:39;19.20;;;7.03;;
11699;SDS011;5906;51.660;6.674;2023-12-20T08:53:07;15.07;;;6.60;;
11699;SDS011;5906;51.660;6.674;2023-12-20T08:55:35;25.33;;;6.20;;
11699;SDS011;5906;51.660;6.674;2023-12-20T08:58:03;22.27;;;5.53;;
11699;SDS011;5906;51.660;6.674;2023-12-20T09:00:33;15.60;;;5.90;;
11699;SDS011;5906;51.660;6.674;2023-12-20T09:03:03;18.40;;;6.17;;
11699;SDS011;5906;51.660;6.674;2023-12-20T09:05:30;12.43;;;6.77;;
11699;SDS011;5906;51.660;6.674;2023-12-20T09:07:58;27.30;;;6.77;;
11699;SDS011;5906;51.660;6.674;2023-12-20T09:10:26;22.73;;;6.77;;
11699;SDS011;5906;51.660;6.674;2023-12-20T09:12:53;15.80;;;5.73;;
11699;SDS011;5906;51.660;6.674;2023-12-20T09:15:24;16.20;;;5.83;;
11699;SDS011;5906;51.660;6.674;2023-12-20T09:17:52;11.00;;;4.77;;
11699;SDS011;5906;51.660;6.674;2023-12-20T09:20:20;19.83;;;5.70;;
11699;SDS011;5906;51.660;6.674;2023-12-20T09:22:47;19.60;;;4.80;;
11699;SDS011;5906;51.660;6.674;2023-12-20T09:25:15;21.10;;;6.80;;
11699;SDS011;5906;51.660;6.674;2023-12-20T09:27:44;12.53;;;6.00;;
11699;SDS011;5906;51.660;6.674;2023-12-20T09:30:12;22.53;;;6.53;;
11699;SDS011;5906;51.660;6.674;2023-12-20T09:32:51;14.73;;;5.57;;
11699;SDS011;5906;51.660;6.674;2023-12-20T09:35:18;23.77;;;6.57;;
11699;SDS011;5906;51.660;6.674;2023-12-20T09:37:46;17.87;;;7.67;;
11699;SDS011;5906;51.660;6.674;2023-12-20T09:40:13;25.50;;;7.17;;
11699;SDS011;5906;51.660;6.674;2023-12-20T09:45:08;14.40;;;6.90;;
11699;SDS011;5906;51.660;6.674;2023-12-20T09:47:36;16.13;;;6.63;;
11699;SDS011;5906;51.660;6.674;2023-12-20T09:50:03;13.67;;;6.03;;
11699;SDS011;5906;51.660;6.674;2023-12-20T09:52:32;19.33;;;7.70;;
11699;SDS011;5906;51.660;6.674;2023-12-20T09:55:00;27.50;;;5.40;;
11699;SDS011;5906;51.660;6.674;2023-12-20T09:57:30;14.17;;;6.20;;
11699;SDS011;5906;51.660;6.674;2023-12-20T09:59:58;17.80;;;6.80;;
11699;SDS011;5906;51.660;6.674;2023-12-20T10:02:25;25.13;;;6.83;;
11699;SDS011;5906;51.660;6.674;2023-12-20T10:04:54;19.87;;;5.90;;
11699;SDS011;5906;51.660;6.674;2023-12-20T10:07:21;13.10;;;5.90;;
11699;SDS011;5906;51.660;6.674;2023-12-20T10:09:49;22.50;;;6.87;;
11699;SDS011;5906;51.660;6.674;2023-12-20T10:12:18;14.27;;;6.30;;
11699;SDS011;5906;51.660;6.674;2023-12-20T10:14:45;23.73;;;6.83;;
11699;SDS011;5906;51.660;6.674;2023-12-20T10:17:12;11.77;;;5.77;;
11699;SDS011;5906;51.660;6.674;2023-12-20T10:19:40;23.47;;;7.83;;
11699;SDS011;5906;51.660;6.674;2023-12-20T10:22:07;19.53;;;6.60;;
11699;SDS011;5906;51.660;6.674;2023-12-20T10:24:34;17.20;;;5.60;;
11699;SDS011;5906;51.660;6.674;2023-12-20T10:27:02;11.80;;;6.47;;
11699;SDS011;5906;51.660;6.674;2023-12-20T10:29:33;27.00;;;6.80;;
11699;SDS011;5906;51.660;6.674;2023-12-20T10:34:54;16.47;;;6.80;;
11699;SDS011;5906;51.660;6.674;2023-12-20T10:37:21;14.80;;;5.80;;
11699;SDS011;5906;51.660;6.674;2023-12-20T10:39:50;17.30;;;7.03;;
11699;SDS011;5906;51.660;6.674;2023-12-20T10:42:20;18.20;;;7.70;;
11699;SDS011;5906;51.660;6.674;2023-12-20T10:44:50;31.53;;;8.87;;
11699;SDS011;5906;51.660;6.674;2023-12-20T10:47:20;14.90;;;6.90;;
11699;SDS011;5906;51.660;6.674;2023-12-20T10:49:47;23.33;;;6.97;;
11699;SDS011;5906;51.660;6.674;2023-12-20T10:52:14;24.30;;;6.33;;
11699;SDS011;5906;51.660;6.674;2023-12-20T10:54:44;21.70;;;7.47;;
11699;SDS011;5906;51.660;6.674;2023-12-20T10:57:12;19.93;;;6.70;;
11699;SDS011;5906;51.660;6.674;2023-12-20T10:59:39;17.77;;;6.43;;
11699;SDS011;5906;51.660;6.674;2023-12-20T11:02:07;19.80;;;6.07;;
11699;SDS011;5906;51.660;6.674;2023-12-20T11:04:44;14.00;;;6.53;;
11699;SDS011;5906;51.660;6.674;2023-12-20T11:07:19;27.27;;;6.60;;
11699;SDS011;5906;51.660;6.674;2023-12-20T11:09:53;14.03;;;6.20;;
11699;SDS011;5906;51.660;6.674;2023-12-20T11:12:25;14.93;;;6.00;;
11699;SDS011;5906;51.660;6.674;2023-12-20T11:14:55;17.37;;;7.37;;
11699;SDS011;5906;51.660;6.674;2023-12-20T11:17:24;24.53;;;7.17;;
11699;SDS011;5906;51.660;6.674;2023-12-20T11:22:24;22.27;;;5.57;;
11699;SDS011;5906;51.660;6.674;2023-12-20T11:24:52;17.20;;;6.50;;
11699;SDS011;5906;51.660;6.674;2023-12-20T11:27:22;16.97;;;7.37;;
11699;SDS011;5906;51.660;6.674;2023-12-20T11:29:51;9.30;;;6.13;;
11699;SDS011;5906;51.660;6.674;2023-12-20T11:34:53;30.50;;;8.20;;
11699;SDS011;5906;51.660;6.674;2023-12-20T11:37:21;19.30;;;7.00;;
11699;SDS011;5906;51.660;6.674;2023-12-20T11:39:55;17.47;;;6.10;;
11699;SDS011;5906;51.660;6.674;2023-12-20T11:42:23;18.93;;;5.83;;
11699;SDS011;5906;51.660;6.674;2023-12-20T11:44:50;28.37;;;6.80;;
11699;SDS011;5906;51.660;6.674;2023-12-20T11:47:17;22.73;;;6.63;;
11699;SDS011;5906;51.660;6.674;2023-12-20T11:49:48;19.90;;;6.43;;
11699;SDS011;5906;51.660;6.674;2023-12-20T11:52:17;14.33;;;5.83;;
11699;SDS011;5906;51.660;6.674;2023-12-20T11:54:45;19.50;;;7.10;;
11699;SDS011;5906;51.660;6.674;2023-12-20T11:57:12;21.80;;;7.90;;
11699;SDS011;5906;51.660;6.674;2023-12-20T11:59:39;18.93;;;7.00;;
11699;SDS011;5906;51.660;6.674;2023-12-20T12:02:07;21.47;;;6.40;;
11699;SDS011;5906;51.660;6.674;2023-12-20T12:04:34;30.30;;;11.40;;
11699;SDS011;5906;51.660;6.674;2023-12-20T12:07:02;17.23;;;8.03;;
11699;SDS011;5906;51.660;6.674;2023-12-20T12:09:29;30.80;;;9.17;;
11699;SDS011;5906;51.660;6.674;2023-12-20T12:11:57;19.77;;;8.60;;
11699;SDS011;5906;51.660;6.674;2023-12-20T12:14:25;12.17;;;6.20;;
11699;SDS011;5906;51.660;6.674;2023-12-20T12:16:55;20.03;;;6.77;;
11699;SDS011;5906;51.660;6.674;2023-12-20T12:19:23;19.27;;;6.17;;
11699;SDS011;5906;51.660;6.674;2023-12-20T12:21:51;14.60;;;6.50;;
11699;SDS011;5906;51.660;6.674;2023-12-20T12:24:22;23.23;;;6.70;;
11699;SDS011;5906;51.660;6.674;2023-12-20T12:26:49;18.53;;;7.00;;
11699;SDS011;5906;51.660;6.674;2023-12-20T12:29:17;17.00;;;7.37;;
11699;SDS011;5906;51.660;6.674;2023-12-20T12:31:44;20.87;;;6.93;;
11699;SDS011;5906;51.660;6.674;2023-12-20T12:34:12;14.83;;;6.80;;
11699;SDS011;5906;51.660;6.674;2023-12-20T12:36:40;28.83;;;7.40;;
11699;SDS011;5906;51.660;6.674;2023-12-20T12:39:07;18.23;;;7.07;;
11699;SDS011;5906;51.660;6.674;2023-12-20T12:41:36;24.17;;;7.33;;
11699;SDS011;5906;51.660;6.674;2023-12-20T12:44:03;18.63;;;6.50;;
11699;SDS011;5906;51.660;6.674;2023-12-20T12:46:42;28.37;;;6.93;;
11699;SDS011;5906;51.660;6.674;2023-12-20T12:49:09;22.43;;;8.20;;
11699;SDS011;5906;51.660;6.674;2023-12-20T12:51:37;24.73;;;6.67;;
11699;SDS011;5906;51.660;6.674;2023-12-20T12:54:04;19.03;;;6.80;;
11699;SDS011;5906;51.660;6.674;2023-12-20T12:56:32;17.67;;;7.07;;
11699;SDS011;5906;51.660;6.674;2023-12-20T12:58:59;24.90;;;7.17;;
11699;SDS011;5906;51.660;6.674;2023-12-20T13:01:27;19.80;;;7.30;;
11699;SDS011;5906;51.660;6.674;2023-12-20T13:03:54;27.53;;;7.30;;
11699;SDS011;5906;51.660;6.674;2023-12-20T13:06:21;17.63;;;6.67;;
11699;SDS011;5906;51.660;6.674;2023-12-20T13:08:49;11.93;;;7.17;;
11699;SDS011;5906;51.660;6.674;2023-12-20T13:11:16;18.07;;;7.43;;
11699;SDS011;5906;51.660;6.674;2023-12-20T13:13:44;12.80;;;6.77;;
11699;SDS011;5906;51.660;6.674;2023-12-20T13:16:11;18.40;;;7.20;;
11699;SDS011;5906;51.660;6.674;2023-12-20T13:18:38;14.57;;;6.70;;
11699;SDS011;5906;51.660;6.674;2023-12-20T13:21:09;15.47;;;6.80;;
11699;SDS011;5906;51.660;6.674;2023-12-20T13:23:36;11.67;;;6.13;;
11699;SDS011;5906;51.660;6.674;2023-12-20T13:26:06;11.87;;;6.27;;
11699;SDS011;5906;51.660;6.674;2023-12-20T13:28:34;21.23;;;8.17;;
11699;SDS011;5906;51.660;6.674;2023-12-20T13:31:01;24.97;;;6.83;;
11699;SDS011;5906;51.660;6.674;2023-12-20T13:33:29;13.63;;;7.27;;
11699;SDS011;5906;51.660;6.674;2023-12-20T13:35:57;14.30;;;7.10;;
11699;SDS011;5906;51.660;6.674;2023-12-20T13:38:24;12.93;;;7.40;;
11699;SDS011;5906;51.660;6.674;2023-12-20T13:40:52;20.43;;;7.80;;
11699;SDS011;5906;51.660;6.674;2023-12-20T13:43:19;13.23;;;7.60;;
11699;SDS011;5906;51.660;6.674;2023-12-20T13:45:48;14.10;;;8.40;;
11699;SDS011;5906;51.660;6.674;2023-12-20T13:48:15;21.23;;;7.60;;
11699;SDS011;5906;51.660;6.674;2023-12-20T13:50:43;20.07;;;7.60;;
11699;SDS011;5906;51.660;6.674;2023-12-20T13:53:10;25.97;;;9.07;;
11699;SDS011;5906;51.660;6.674;2023-12-20T13:55:38;18.40;;;7.30;;
11699;SDS011;5906;51.660;6.674;2023-12-20T13:58:05;18.87;;;8.70;;
11699;SDS011;5906;51.660;6.674;2023-12-20T14:00:32;14.13;;;8.03;;
11699;SDS011;5906;51.660;6.674;2023-12-20T14:03:00;22.77;;;9.23;;
11699;SDS011;5906;51.660;6.674;2023-12-20T14:05:28;11.60;;;6.97;;
11699;SDS011;5906;51.660;6.674;2023-12-20T14:07:56;16.30;;;7.53;;
11699;SDS011;5906;51.660;6.674;2023-12-20T14:10:27;20.60;;;8.17;;
11699;SDS011;5906;51.660;6.674;2023-12-20T14:12:54;12.47;;;7.47;;
11699;SDS011;5906;51.660;6.674;2023-12-20T14:15:22;17.10;;;7.27;;
11699;SDS011;5906;51.660;6.674;2023-12-20T14:17:51;21.33;;;8.27;;
11699;SDS011;5906;51.660;6.674;2023-12-20T14:20:19;14.80;;;7.07;;
11699;SDS011;5906;51.660;6.674;2023-12-20T14:22:46;25.17;;;7.63;;
11699;SDS011;5906;51.660;6.674;2023-12-20T14:25:14;24.47;;;8.70;;
11699;SDS011;5906;51.660;6.674;2023-12-20T14:27:41;15.57;;;7.57;;
11699;SDS011;5906;51.660;6.674;2023-12-20T14:30:11;20.43;;;8.50;;
11699;SDS011;5906;51.660;6.674;2023-12-20T14:32:41;16.83;;;8.67;;
11699;SDS011;5906;51.660;6.674;2023-12-20T14:35:08;16.87;;;7.40;;
11699;SDS011;5906;51.660;6.674;2023-12-20T14:37:36;18.77;;;9.17;;
11699;SDS011;5906;51.660;6.674;2023-12-20T14:40:07;18.20;;;8.50;;
11699;SDS011;5906;51.660;6.674;2023-12-20T14:42:42;23.67;;;8.57;;
11699;SDS011;5906;51.660;6.674;2023-12-20T14:45:09;22.53;;;9.67;;
11699;SDS011;5906;51.660;6.674;2023-12-20T14:47:37;28.43;;;9.90;;
11699;SDS011;5906;51.660;6.674;2023-12-20T14:50:04;16.83;;;9.37;;
11699;SDS011;5906;51.660;6.674;2023-12-20T14:52:32;24.00;;;8.80;;
11699;SDS011;5906;51.660;6.674;2023-12-20T14:55:00;21.63;;;8.63;;
11699;SDS011;5906;51.660;6.674;2023-12-20T14:57:31;16.33;;;8.47;;
11699;SDS011;5906;51.660;6.674;2023-12-20T14:59:58;17.90;;;8.50;;
11699;SDS011;5906;51.660;6.674;2023-12-20T15:02:26;23.03;;;8.10;;